sensor_id;sensor_type;location;lat;lon;timestamp;temperature;humidity
27741;DHT22;15134;48.768;9.184;2023-07-31T00:00:43;18.10;99.90
27741;DHT22;15134;48.768;9.184;2023-07-31T00:03:08;18.10;99.90
27741;DHT22;15134;48.768;9.184;2023-07-31T00:05:35;18.00;99.90
27741;DHT22;15134;48.768;9.184;2023-07-31T00:08:01;18.00;99.90
27741;DHT22;15134;48.768;9.184;2023-07-31T00:10:27;18.00;99.90
27741;DHT22;15134;48.768;9.184;2023-07-31T00:12:53;18.00;99.90
27741;DHT22;15134;48.768;9.184;2023-07-31T00:15:19;17.90;99.90
27741;DHT22;15134;48.768;9.184;2023-07-31T00:17:45;17.80;99.90
27741;DHT22;15134;48.768;9.184;2023-07-31T00:20:11;17.70;99.90
27741;DHT22;15134;48.768;9.184;2023-07-31T00:22:36;17.60;99.90
27741;DHT22;15134;48.768;9.184;2023-07-31T00:25:02;17.60;99.90
27741;DHT22;15134;48.768;9.184;2023-07-31T00:27:28;17.70;99.90
27741;DHT22;15134;48.768;9.184;2023-07-31T00:29:54;17.60;99.90
27741;DHT22;15134;48.768;9.184;2023-07-31T00:32:19;17.70;99.90
27741;DHT22;15134;48.768;9.184;2023-07-31T00:34:57;17.60;99.90
27741;DHT22;15134;48.768;9.184;2023-07-31T00:37:24;17.60;99.90
27741;DHT22;15134;48.768;9.184;2023-07-31T00:39:49;17.70;99.90
27741;DHT22;15134;48.768;9.184;2023-07-31T00:42:15;17.70;99.90
27741;DHT22;15134;48.768;9.184;2023-07-31T00:44:47;17.70;99.90
27741;DHT22;15134;48.768;9.184;2023-07-31T00:47:14;17.80;99.90
27741;DHT22;15134;48.768;9.184;2023-07-31T00:49:40;17.80;99.90
27741;DHT22;15134;48.768;9.184;2023-07-31T00:52:07;17.70;99.90
27741;DHT22;15134;48.768;9.184;2023-07-31T00:54:42;17.70;99.90
27741;DHT22;15134;48.768;9.184;2023-07-31T00:57:08;17.70;99.90
27741;DHT22;15134;48.768;9.184;2023-07-31T00:59:36;17.70;99.90
27741;DHT22;15134;48.768;9.184;2023-07-31T01:02:02;17.70;99.90
27741;DHT22;15134;48.768;9.184;2023-07-31T01:04:29;17.60;99.90
27741;DHT22;15134;48.768;9.184;2023-07-31T01:07:13;17.70;99.90
27741;DHT22;15134;48.768;9.184;2023-07-31T01:09:52;17.60;99.90
27741;DHT22;15134;48.768;9.184;2023-07-31T01:12:22;17.60;99.90
27741;DHT22;15134;48.768;9.184;2023-07-31T01:15:08;17.60;99.90
27741;DHT22;15134;48.768;9.184;2023-07-31T01:17:42;17.60;99.90
27741;DHT22;15134;48.768;9.184;2023-07-31T01:20:26;17.40;99.90
27741;DHT22;15134;48.768;9.184;2023-07-31T01:26:16;17.40;99.90
27741;DHT22;15134;48.768;9.184;2023-07-31T01:29:38;17.40;99.90
27741;DHT22;15134;48.768;9.184;2023-07-31T01:31:46;17.50;99.90
27741;DHT22;15134;48.768;9.184;2023-07-31T01:34:17;17.50;99.90
27741;DHT22;15134;48.768;9.184;2023-07-31T01:36:45;17.50;99.90
27741;DHT22;15134;48.768;9.184;2023-07-31T01:39:13;17.40;99.90
27741;DHT22;15134;48.768;9.184;2023-07-31T01:41:41;17.40;99.90
27741;DHT22;15134;48.768;9.184;2023-07-31T01:44:06;17.40;99.90
27741;DHT22;15134;48.768;9.184;2023-07-31T01:46:35;17.30;99.90
27741;DHT22;15134;48.768;9.184;2023-07-31T01:49:01;17.20;99.90
27741;DHT22;15134;48.768;9.184;2023-07-31T01:51:27;17.20;99.90
27741;DHT22;15134;48.768;9.184;2023-07-31T01:53:53;17.10;99.90
27741;DHT22;15134;48.768;9.184;2023-07-31T01:56:19;17.00;99.90
27741;DHT22;15134;48.768;9.184;2023-07-31T01:58:45;17.10;99.90
27741;DHT22;15134;48.768;9.184;2023-07-31T02:01:13;17.10;99.90
27741;DHT22;15134;48.768;9.184;2023-07-31T02:03:39;17.10;99.90
27741;DHT22;15134;48.768;9.184;2023-07-31T02:06:05;17.00;99.90
27741;DHT22;15134;48.768;9.184;2023-07-31T02:08:31;17.00;99.90
27741;DHT22;15134;48.768;9.184;2023-07-31T02:10:56;17.10;99.90
27741;DHT22;15134;48.768;9.184;2023-07-31T02:13:22;17.10;99.90
27741;DHT22;15134;48.768;9.184;2023-07-31T02:15:50;17.20;99.90
27741;DHT22;15134;48.768;9.184;2023-07-31T02:18:16;17.20;99.90
27741;DHT22;15134;48.768;9.184;2023-07-31T02:20:42;17.30;99.90
27741;DHT22;15134;48.768;9.184;2023-07-31T02:23:07;17.30;99.90
27741;DHT22;15134;48.768;9.184;2023-07-31T02:25:34;17.40;99.90
27741;DHT22;15134;48.768;9.184;2023-07-31T02:28:09;17.30;99.90
27741;DHT22;15134;48.768;9.184;2023-07-31T02:30:35;17.40;99.90
27741;DHT22;15134;48.768;9.184;2023-07-31T02:33:04;17.50;99.90
27741;DHT22;15134;48.768;9.184;2023-07-31T02:35:30;17.50;99.90
27741;DHT22;15134;48.768;9.184;2023-07-31T02:37:56;17.50;99.90
27741;DHT22;15134;48.768;9.184;2023-07-31T02:40:22;17.60;99.90
27741;DHT22;15134;48.768;9.184;2023-07-31T02:42:51;17.60;99.90
27741;DHT22;15134;48.768;9.184;2023-07-31T02:45:16;17.60;99.90
27741;DHT22;15134;48.768;9.184;2023-07-31T02:47:42;17.60;99.90
27741;DHT22;15134;48.768;9.184;2023-07-31T02:50:08;17.50;99.90
27741;DHT22;15134;48.768;9.184;2023-07-31T02:52:34;17.50;99.90
27741;DHT22;15134;48.768;9.184;2023-07-31T02:55:00;17.50;99.90
27741;DHT22;15134;48.768;9.184;2023-07-31T02:57:25;17.40;99.90
27741;DHT22;15134;48.768;9.184;2023-07-31T02:59:51;17.40;99.90
27741;DHT22;15134;48.768;9.184;2023-07-31T03:02:17;17.40;99.90
27741;DHT22;15134;48.768;9.184;2023-07-31T03:04:45;17.30;99.90
27741;DHT22;15134;48.768;9.184;2023-07-31T03:07:11;17.30;99.90
27741;DHT22;15134;48.768;9.184;2023-07-31T03:09:37;17.30;99.90
27741;DHT22;15134;48.768;9.184;2023-07-31T03:12:03;17.30;99.90
27741;DHT22;15134;48.768;9.184;2023-07-31T03:14:29;17.30;99.90
27741;DHT22;15134;48.768;9.184;2023-07-31T03:16:55;17.30;99.90
27741;DHT22;15134;48.768;9.184;2023-07-31T03:19:20;17.30;99.90
27741;DHT22;15134;48.768;9.184;2023-07-31T03:21:46;17.20;99.90
27741;DHT22;15134;48.768;9.184;2023-07-31T03:24:12;17.10;99.90
27741;DHT22;15134;48.768;9.184;2023-07-31T03:26:38;17.10;99.90
27741;DHT22;15134;48.768;9.184;2023-07-31T03:29:07;17.10;99.90
27741;DHT22;15134;48.768;9.184;2023-07-31T03:31:33;17.00;99.90
27741;DHT22;15134;48.768;9.184;2023-07-31T03:33:59;17.00;99.90
27741;DHT22;15134;48.768;9.184;2023-07-31T03:36:26;17.00;99.90
27741;DHT22;15134;48.768;9.184;2023-07-31T03:38:53;17.00;99.90
27741;DHT22;15134;48.768;9.184;2023-07-31T03:41:18;17.00;99.90
27741;DHT22;15134;48.768;9.184;2023-07-31T03:43:50;17.00;99.90
27741;DHT22;15134;48.768;9.184;2023-07-31T03:46:19;17.00;99.90
27741;DHT22;15134;48.768;9.184;2023-07-31T03:48:45;17.00;99.90
27741;DHT22;15134;48.768;9.184;2023-07-31T03:51:13;17.10;99.90
27741;DHT22;15134;48.768;9.184;2023-07-31T03:53:39;17.10;99.90
27741;DHT22;15134;48.768;9.184;2023-07-31T03:56:05;17.10;99.90
27741;DHT22;15134;48.768;9.184;2023-07-31T03:58:30;17.10;99.90
27741;DHT22;15134;48.768;9.184;2023-07-31T04:00:56;17.20;99.90
27741;DHT22;15134;48.768;9.184;2023-07-31T04:03:22;17.20;99.90
27741;DHT22;15134;48.768;9.184;2023-07-31T04:05:48;17.20;99.90
27741;DHT22;15134;48.768;9.184;2023-07-31T04:08:13;17.20;99.90
27741;DHT22;15134;48.768;9.184;2023-07-31T04:10:39;17.30;99.90
27741;DHT22;15134;48.768;9.184;2023-07-31T04:13:05;17.30;99.90
27741;DHT22;15134;48.768;9.184;2023-07-31T04:15:33;17.40;99.90
27741;DHT22;15134;48.768;9.184;2023-07-31T04:17:59;17.40;99.90
27741;DHT22;15134;48.768;9.184;2023-07-31T04:20:41;17.50;99.90
27741;DHT22;15134;48.768;9.184;2023-07-31T04:23:09;17.50;99.90
27741;DHT22;15134;48.768;9.184;2023-07-31T04:25:35;17.50;99.90
27741;DHT22;15134;48.768;9.184;2023-07-31T04:28:01;17.50;99.90
27741;DHT22;15134;48.768;9.184;2023-07-31T04:30:27;17.60;99.90
27741;DHT22;15134;48.768;9.184;2023-07-31T04:33:21;17.60;99.90
27741;DHT22;15134;48.768;9.184;2023-07-31T04:35:54;17.70;99.90
27741;DHT22;15134;48.768;9.184;2023-07-31T04:38:22;17.70;99.90
27741;DHT22;15134;48.768;9.184;2023-07-31T04:40:48;17.80;99.90
27741;DHT22;15134;48.768;9.184;2023-07-31T04:43:13;17.90;99.90
27741;DHT22;15134;48.768;9.184;2023-07-31T04:45:41;17.90;99.90
27741;DHT22;15134;48.768;9.184;2023-07-31T04:48:09;17.90;99.90
27741;DHT22;15134;48.768;9.184;2023-07-31T04:50:35;17.90;99.90
27741;DHT22;15134;48.768;9.184;2023-07-31T04:53:00;17.90;99.90
27741;DHT22;15134;48.768;9.184;2023-07-31T04:55:26;18.00;99.90
27741;DHT22;15134;48.768;9.184;2023-07-31T04:57:52;18.00;99.90
27741;DHT22;15134;48.768;9.184;2023-07-31T05:00:18;18.10;99.90
27741;DHT22;15134;48.768;9.184;2023-07-31T05:02:44;18.10;99.90
27741;DHT22;15134;48.768;9.184;2023-07-31T05:05:11;18.20;99.90
27741;DHT22;15134;48.768;9.184;2023-07-31T05:07:39;18.20;99.90
27741;DHT22;15134;48.768;9.184;2023-07-31T05:10:05;18.30;99.90
27741;DHT22;15134;48.768;9.184;2023-07-31T05:12:31;18.30;99.90
27741;DHT22;15134;48.768;9.184;2023-07-31T05:14:58;18.20;99.90
27741;DHT22;15134;48.768;9.184;2023-07-31T05:17:24;18.30;99.90
27741;DHT22;15134;48.768;9.184;2023-07-31T05:19:49;18.40;99.90
27741;DHT22;15134;48.768;9.184;2023-07-31T05:22:21;18.50;99.90
27741;DHT22;15134;48.768;9.184;2023-07-31T05:24:58;18.50;99.90
27741;DHT22;15134;48.768;9.184;2023-07-31T05:27:25;18.50;99.90
27741;DHT22;15134;48.768;9.184;2023-07-31T05:29:50;18.60;99.90
27741;DHT22;15134;48.768;9.184;2023-07-31T05:32:16;18.60;99.90
27741;DHT22;15134;48.768;9.184;2023-07-31T05:34:42;18.60;99.90
27741;DHT22;15134;48.768;9.184;2023-07-31T05:37:10;18.70;99.90
27741;DHT22;15134;48.768;9.184;2023-07-31T05:39:38;18.90;99.90
27741;DHT22;15134;48.768;9.184;2023-07-31T05:42:04;19.10;99.90
27741;DHT22;15134;48.768;9.184;2023-07-31T05:44:29;19.30;99.90
27741;DHT22;15134;48.768;9.184;2023-07-31T05:46:55;19.50;99.90
27741;DHT22;15134;48.768;9.184;2023-07-31T05:49:22;19.80;99.90
27741;DHT22;15134;48.768;9.184;2023-07-31T05:51:48;19.80;99.90
27741;DHT22;15134;48.768;9.184;2023-07-31T05:54:14;19.90;99.90
27741;DHT22;15134;48.768;9.184;2023-07-31T05:56:40;20.00;99.90
27741;DHT22;15134;48.768;9.184;2023-07-31T05:59:13;20.20;99.90
27741;DHT22;15134;48.768;9.184;2023-07-31T06:01:45;20.20;99.90
27741;DHT22;15134;48.768;9.184;2023-07-31T06:04:10;20.20;99.90
27741;DHT22;15134;48.768;9.184;2023-07-31T06:06:36;20.40;99.90
27741;DHT22;15134;48.768;9.184;2023-07-31T06:09:02;20.80;99.90
27741;DHT22;15134;48.768;9.184;2023-07-31T06:11:29;21.10;99.90
27741;DHT22;15134;48.768;9.184;2023-07-31T06:13:56;21.60;99.90
27741;DHT22;15134;48.768;9.184;2023-07-31T06:16:23;22.30;99.90
27741;DHT22;15134;48.768;9.184;2023-07-31T06:18:48;23.10;99.90
27741;DHT22;15134;48.768;9.184;2023-07-31T06:21:17;23.70;99.90
27741;DHT22;15134;48.768;9.184;2023-07-31T06:23:43;24.30;99.90
27741;DHT22;15134;48.768;9.184;2023-07-31T06:26:09;24.40;99.90
27741;DHT22;15134;48.768;9.184;2023-07-31T06:28:35;24.50;99.90
27741;DHT22;15134;48.768;9.184;2023-07-31T06:31:01;24.60;99.90
27741;DHT22;15134;48.768;9.184;2023-07-31T06:33:32;25.20;99.90
27741;DHT22;15134;48.768;9.184;2023-07-31T06:35:58;26.30;99.90
27741;DHT22;15134;48.768;9.184;2023-07-31T06:38:30;27.10;99.90
27741;DHT22;15134;48.768;9.184;2023-07-31T06:40:55;27.30;99.90
27741;DHT22;15134;48.768;9.184;2023-07-31T06:43:21;26.80;99.90
27741;DHT22;15134;48.768;9.184;2023-07-31T06:45:50;25.90;99.90
27741;DHT22;15134;48.768;9.184;2023-07-31T06:48:17;25.10;99.90
27741;DHT22;15134;48.768;9.184;2023-07-31T06:50:43;25.10;99.90
27741;DHT22;15134;48.768;9.184;2023-07-31T06:53:08;25.50;99.90
27741;DHT22;15134;48.768;9.184;2023-07-31T06:55:34;25.80;99.90
27741;DHT22;15134;48.768;9.184;2023-07-31T06:58:00;25.90;99.90
27741;DHT22;15134;48.768;9.184;2023-07-31T07:00:25;26.20;99.90
27741;DHT22;15134;48.768;9.184;2023-07-31T07:02:51;27.00;99.90
27741;DHT22;15134;48.768;9.184;2023-07-31T07:05:19;27.30;99.90
27741;DHT22;15134;48.768;9.184;2023-07-31T07:07:45;27.30;99.90
27741;DHT22;15134;48.768;9.184;2023-07-31T07:10:11;27.10;99.90
27741;DHT22;15134;48.768;9.184;2023-07-31T07:12:39;26.70;99.90
27741;DHT22;15134;48.768;9.184;2023-07-31T07:15:08;26.80;99.90
27741;DHT22;15134;48.768;9.184;2023-07-31T07:17:34;26.70;99.90
27741;DHT22;15134;48.768;9.184;2023-07-31T07:20:00;26.80;99.90
27741;DHT22;15134;48.768;9.184;2023-07-31T07:22:27;27.10;99.90
27741;DHT22;15134;48.768;9.184;2023-07-31T07:24:53;27.20;99.90
27741;DHT22;15134;48.768;9.184;2023-07-31T07:27:20;27.80;99.90
27741;DHT22;15134;48.768;9.184;2023-07-31T07:29:46;28.80;99.90
27741;DHT22;15134;48.768;9.184;2023-07-31T07:32:12;29.80;99.90
27741;DHT22;15134;48.768;9.184;2023-07-31T07:34:38;29.90;99.90
27741;DHT22;15134;48.768;9.184;2023-07-31T07:37:04;29.10;99.90
27741;DHT22;15134;48.768;9.184;2023-07-31T07:39:30;28.50;99.90
27741;DHT22;15134;48.768;9.184;2023-07-31T07:41:55;28.00;99.90
27741;DHT22;15134;48.768;9.184;2023-07-31T07:44:21;27.70;99.90
27741;DHT22;15134;48.768;9.184;2023-07-31T07:46:47;27.90;99.90
27741;DHT22;15134;48.768;9.184;2023-07-31T07:49:13;28.40;99.90
27741;DHT22;15134;48.768;9.184;2023-07-31T07:51:40;29.40;99.90
27741;DHT22;15134;48.768;9.184;2023-07-31T07:54:05;29.20;99.90
27741;DHT22;15134;48.768;9.184;2023-07-31T07:56:33;30.40;99.70
27741;DHT22;15134;48.768;9.184;2023-07-31T07:58:58;31.70;97.60
27741;DHT22;15134;48.768;9.184;2023-07-31T08:01:24;32.70;96.40
27741;DHT22;15134;48.768;9.184;2023-07-31T08:03:50;33.70;94.60
27741;DHT22;15134;48.768;9.184;2023-07-31T08:06:16;34.90;91.90
27741;DHT22;15134;48.768;9.184;2023-07-31T08:08:42;35.80;90.50
27741;DHT22;15134;48.768;9.184;2023-07-31T08:11:08;36.10;86.50
27741;DHT22;15134;48.768;9.184;2023-07-31T08:13:34;36.60;84.20
27741;DHT22;15134;48.768;9.184;2023-07-31T08:16:02;37.20;81.40
27741;DHT22;15134;48.768;9.184;2023-07-31T08:18:31;38.10;78.40
27741;DHT22;15134;48.768;9.184;2023-07-31T08:20:58;38.50;75.70
27741;DHT22;15134;48.768;9.184;2023-07-31T08:23:24;38.30;73.90
27741;DHT22;15134;48.768;9.184;2023-07-31T08:25:50;38.40;73.80
27741;DHT22;15134;48.768;9.184;2023-07-31T08:28:16;38.80;73.20
27741;DHT22;15134;48.768;9.184;2023-07-31T08:30:45;39.50;70.90
27741;DHT22;15134;48.768;9.184;2023-07-31T08:33:10;39.90;69.20
27741;DHT22;15134;48.768;9.184;2023-07-31T08:35:36;39.80;68.30
27741;DHT22;15134;48.768;9.184;2023-07-31T08:38:02;39.40;68.00
27741;DHT22;15134;48.768;9.184;2023-07-31T08:40:28;38.30;68.70
27741;DHT22;15134;48.768;9.184;2023-07-31T08:42:55;38.30;68.30
27741;DHT22;15134;48.768;9.184;2023-07-31T08:45:31;37.30;69.60
27741;DHT22;15134;48.768;9.184;2023-07-31T08:47:57;36.00;71.60
27741;DHT22;15134;48.768;9.184;2023-07-31T08:50:28;36.50;71.30
27741;DHT22;15134;48.768;9.184;2023-07-31T08:52:57;35.90;71.20
27741;DHT22;15134;48.768;9.184;2023-07-31T08:55:25;34.30;74.10
27741;DHT22;15134;48.768;9.184;2023-07-31T08:57:52;32.80;76.90
27741;DHT22;15134;48.768;9.184;2023-07-31T09:00:19;32.20;78.50
27741;DHT22;15134;48.768;9.184;2023-07-31T09:05:17;32.50;78.60
27741;DHT22;15134;48.768;9.184;2023-07-31T09:07:50;31.60;79.80
27741;DHT22;15134;48.768;9.184;2023-07-31T09:10:17;31.20;81.90
27741;DHT22;15134;48.768;9.184;2023-07-31T09:12:43;32.50;80.40
27741;DHT22;15134;48.768;9.184;2023-07-31T09:15:09;33.10;78.50
27741;DHT22;15134;48.768;9.184;2023-07-31T09:17:37;33.80;77.60
27741;DHT22;15134;48.768;9.184;2023-07-31T09:20:17;33.40;77.40
27741;DHT22;15134;48.768;9.184;2023-07-31T09:22:44;33.00;77.20
27741;DHT22;15134;48.768;9.184;2023-07-31T09:25:21;32.30;79.10
27741;DHT22;15134;48.768;9.184;2023-07-31T09:27:51;32.40;79.00
27741;DHT22;15134;48.768;9.184;2023-07-31T09:30:21;31.60;80.90
27741;DHT22;15134;48.768;9.184;2023-07-31T09:32:51;30.90;81.60
27741;DHT22;15134;48.768;9.184;2023-07-31T09:35:21;30.10;84.00
27741;DHT22;15134;48.768;9.184;2023-07-31T09:37:55;29.50;85.40
27741;DHT22;15134;48.768;9.184;2023-07-31T09:40:31;28.80;87.50
27741;DHT22;15134;48.768;9.184;2023-07-31T09:42:58;28.10;88.20
27741;DHT22;15134;48.768;9.184;2023-07-31T09:45:25;27.40;90.40
27741;DHT22;15134;48.768;9.184;2023-07-31T09:47:51;26.70;91.00
27741;DHT22;15134;48.768;9.184;2023-07-31T09:50:17;26.10;91.70
27741;DHT22;15134;48.768;9.184;2023-07-31T09:52:43;26.00;92.30
27741;DHT22;15134;48.768;9.184;2023-07-31T09:55:10;26.50;92.10
27741;DHT22;15134;48.768;9.184;2023-07-31T09:57:56;27.50;91.60
27741;DHT22;15134;48.768;9.184;2023-07-31T10:00:22;27.90;90.90
27741;DHT22;15134;48.768;9.184;2023-07-31T10:02:51;27.90;90.70
27741;DHT22;15134;48.768;9.184;2023-07-31T10:05:23;28.20;90.70
27741;DHT22;15134;48.768;9.184;2023-07-31T10:07:54;27.90;90.50
27741;DHT22;15134;48.768;9.184;2023-07-31T10:10:22;27.20;90.90
27741;DHT22;15134;48.768;9.184;2023-07-31T10:12:49;27.10;91.10
27741;DHT22;15134;48.768;9.184;2023-07-31T10:15:15;26.90;91.50
27741;DHT22;15134;48.768;9.184;2023-07-31T10:17:42;26.60;92.00
27741;DHT22;15134;48.768;9.184;2023-07-31T10:20:08;26.30;92.60
27741;DHT22;15134;48.768;9.184;2023-07-31T10:22:35;26.40;92.70
27741;DHT22;15134;48.768;9.184;2023-07-31T10:25:01;26.50;92.30
27741;DHT22;15134;48.768;9.184;2023-07-31T10:27:29;26.50;92.00
27741;DHT22;15134;48.768;9.184;2023-07-31T10:29:56;26.60;92.40
27741;DHT22;15134;48.768;9.184;2023-07-31T10:32:23;26.60;92.10
27741;DHT22;15134;48.768;9.184;2023-07-31T10:34:50;26.50;92.70
27741;DHT22;15134;48.768;9.184;2023-07-31T10:37:30;26.50;92.70
27741;DHT22;15134;48.768;9.184;2023-07-31T10:42:38;26.00;93.20
27741;DHT22;15134;48.768;9.184;2023-07-31T10:45:10;25.90;93.40
27741;DHT22;15134;48.768;9.184;2023-07-31T10:47:37;26.00;93.60
27741;DHT22;15134;48.768;9.184;2023-07-31T10:50:19;26.00;93.20
27741;DHT22;15134;48.768;9.184;2023-07-31T10:52:52;25.90;94.00
27741;DHT22;15134;48.768;9.184;2023-07-31T10:57:53;26.00;93.50
27741;DHT22;15134;48.768;9.184;2023-07-31T11:00:28;26.10;94.00
27741;DHT22;15134;48.768;9.184;2023-07-31T11:03:05;26.10;94.00
27741;DHT22;15134;48.768;9.184;2023-07-31T11:08:33;25.90;94.00
27741;DHT22;15134;48.768;9.184;2023-07-31T11:16:15;25.50;94.80
27741;DHT22;15134;48.768;9.184;2023-07-31T11:18:46;25.40;94.40
27741;DHT22;15134;48.768;9.184;2023-07-31T11:21:17;25.30;94.50
27741;DHT22;15134;48.768;9.184;2023-07-31T11:23:57;25.30;94.90
27741;DHT22;15134;48.768;9.184;2023-07-31T11:26:27;25.10;95.30
27741;DHT22;15134;48.768;9.184;2023-07-31T11:28:53;25.00;95.10
27741;DHT22;15134;48.768;9.184;2023-07-31T11:31:19;24.90;95.40
27741;DHT22;15134;48.768;9.184;2023-07-31T11:33:45;24.80;95.80
27741;DHT22;15134;48.768;9.184;2023-07-31T11:36:15;24.70;95.80
27741;DHT22;15134;48.768;9.184;2023-07-31T11:38:41;24.50;96.00
27741;DHT22;15134;48.768;9.184;2023-07-31T11:41:07;24.30;96.20
27741;DHT22;15134;48.768;9.184;2023-07-31T11:43:33;24.30;96.90
27741;DHT22;15134;48.768;9.184;2023-07-31T11:46:02;24.20;96.90
27741;DHT22;15134;48.768;9.184;2023-07-31T11:48:34;24.30;96.90
27741;DHT22;15134;48.768;9.184;2023-07-31T11:51:06;24.30;97.10
27741;DHT22;15134;48.768;9.184;2023-07-31T11:56:13;24.60;97.50
27741;DHT22;15134;48.768;9.184;2023-07-31T11:58:39;24.90;97.60
27741;DHT22;15134;48.768;9.184;2023-07-31T12:01:06;25.00;97.30
27741;DHT22;15134;48.768;9.184;2023-07-31T12:03:33;25.10;97.00
27741;DHT22;15134;48.768;9.184;2023-07-31T12:05:59;25.10;97.00
27741;DHT22;15134;48.768;9.184;2023-07-31T12:08:25;25.20;97.10
27741;DHT22;15134;48.768;9.184;2023-07-31T12:10:52;25.20;96.80
27741;DHT22;15134;48.768;9.184;2023-07-31T12:13:24;25.10;96.80
27741;DHT22;15134;48.768;9.184;2023-07-31T12:15:55;25.00;97.10
27741;DHT22;15134;48.768;9.184;2023-07-31T12:18:22;25.10;97.40
27741;DHT22;15134;48.768;9.184;2023-07-31T12:20:53;25.20;97.10
27741;DHT22;15134;48.768;9.184;2023-07-31T12:23:25;25.10;96.80
27741;DHT22;15134;48.768;9.184;2023-07-31T12:26:20;24.90;96.90
27741;DHT22;15134;48.768;9.184;2023-07-31T12:28:50;24.70;97.90
27741;DHT22;15134;48.768;9.184;2023-07-31T12:31:21;24.60;98.10
27741;DHT22;15134;48.768;9.184;2023-07-31T12:33:49;24.60;98.40
27741;DHT22;15134;48.768;9.184;2023-07-31T12:36:17;24.60;98.50
27741;DHT22;15134;48.768;9.184;2023-07-31T12:38:44;24.60;98.70
27741;DHT22;15134;48.768;9.184;2023-07-31T12:41:10;24.60;98.00
27741;DHT22;15134;48.768;9.184;2023-07-31T12:43:37;24.40;98.00
27741;DHT22;15134;48.768;9.184;2023-07-31T12:46:03;24.40;98.20
27741;DHT22;15134;48.768;9.184;2023-07-31T12:48:29;24.30;98.30
27741;DHT22;15134;48.768;9.184;2023-07-31T12:50:55;24.20;98.50
27741;DHT22;15134;48.768;9.184;2023-07-31T12:53:21;24.10;98.60
27741;DHT22;15134;48.768;9.184;2023-07-31T12:55:47;24.10;98.70
27741;DHT22;15134;48.768;9.184;2023-07-31T12:58:15;24.00;99.10
27741;DHT22;15134;48.768;9.184;2023-07-31T13:00:41;23.90;99.30
27741;DHT22;15134;48.768;9.184;2023-07-31T13:03:08;23.90;99.30
27741;DHT22;15134;48.768;9.184;2023-07-31T13:05:34;23.90;99.90
27741;DHT22;15134;48.768;9.184;2023-07-31T13:08:01;23.90;99.90
27741;DHT22;15134;48.768;9.184;2023-07-31T13:10:27;23.90;99.90
27741;DHT22;15134;48.768;9.184;2023-07-31T13:12:54;24.00;99.60
27741;DHT22;15134;48.768;9.184;2023-07-31T13:15:21;24.10;99.80
27741;DHT22;15134;48.768;9.184;2023-07-31T13:17:47;24.10;99.90
27741;DHT22;15134;48.768;9.184;2023-07-31T13:20:13;24.10;99.90
27741;DHT22;15134;48.768;9.184;2023-07-31T13:22:39;24.20;99.90
27741;DHT22;15134;48.768;9.184;2023-07-31T13:25:07;24.40;99.90
27741;DHT22;15134;48.768;9.184;2023-07-31T13:27:37;24.50;99.90
27741;DHT22;15134;48.768;9.184;2023-07-31T13:30:03;24.60;99.30
27741;DHT22;15134;48.768;9.184;2023-07-31T13:32:29;24.60;99.40
27741;DHT22;15134;48.768;9.184;2023-07-31T13:34:55;24.70;99.10
27741;DHT22;15134;48.768;9.184;2023-07-31T13:37:21;24.80;99.50
27741;DHT22;15134;48.768;9.184;2023-07-31T13:39:47;24.80;99.50
27741;DHT22;15134;48.768;9.184;2023-07-31T13:42:13;24.80;99.50
27741;DHT22;15134;48.768;9.184;2023-07-31T13:44:39;24.80;99.60
27741;DHT22;15134;48.768;9.184;2023-07-31T13:47:05;24.80;99.90
27741;DHT22;15134;48.768;9.184;2023-07-31T13:49:33;24.90;99.90
27741;DHT22;15134;48.768;9.184;2023-07-31T13:52:00;24.90;99.70
27741;DHT22;15134;48.768;9.184;2023-07-31T13:54:26;24.90;99.90
27741;DHT22;15134;48.768;9.184;2023-07-31T13:56:52;25.00;99.90
27741;DHT22;15134;48.768;9.184;2023-07-31T13:59:18;24.80;99.70
27741;DHT22;15134;48.768;9.184;2023-07-31T14:01:44;24.80;99.90
27741;DHT22;15134;48.768;9.184;2023-07-31T14:04:10;24.80;99.70
27741;DHT22;15134;48.768;9.184;2023-07-31T14:06:37;24.70;99.90
27741;DHT22;15134;48.768;9.184;2023-07-31T14:09:05;24.70;99.90
27741;DHT22;15134;48.768;9.184;2023-07-31T14:11:31;24.70;99.90
27741;DHT22;15134;48.768;9.184;2023-07-31T14:13:57;24.50;99.90
27741;DHT22;15134;48.768;9.184;2023-07-31T14:16:23;24.40;99.90
27741;DHT22;15134;48.768;9.184;2023-07-31T14:18:49;24.30;99.90
27741;DHT22;15134;48.768;9.184;2023-07-31T14:21:15;24.30;99.90
27741;DHT22;15134;48.768;9.184;2023-07-31T14:23:41;24.30;99.90
27741;DHT22;15134;48.768;9.184;2023-07-31T14:26:07;24.40;99.90
27741;DHT22;15134;48.768;9.184;2023-07-31T14:28:43;24.40;99.90
27741;DHT22;15134;48.768;9.184;2023-07-31T14:31:08;24.50;99.90
27741;DHT22;15134;48.768;9.184;2023-07-31T14:33:34;24.60;99.90
27741;DHT22;15134;48.768;9.184;2023-07-31T14:36:00;24.60;99.90
27741;DHT22;15134;48.768;9.184;2023-07-31T14:38:28;24.60;99.90
27741;DHT22;15134;48.768;9.184;2023-07-31T14:40:54;24.50;99.90
27741;DHT22;15134;48.768;9.184;2023-07-31T14:43:21;24.50;99.90
27741;DHT22;15134;48.768;9.184;2023-07-31T14:45:46;24.50;99.90
27741;DHT22;15134;48.768;9.184;2023-07-31T14:48:12;24.50;99.90
27741;DHT22;15134;48.768;9.184;2023-07-31T14:50:38;24.50;99.90
27741;DHT22;15134;48.768;9.184;2023-07-31T14:53:04;24.60;99.90
27741;DHT22;15134;48.768;9.184;2023-07-31T14:55:33;24.70;99.90
27741;DHT22;15134;48.768;9.184;2023-07-31T14:58:01;24.70;99.90
27741;DHT22;15134;48.768;9.184;2023-07-31T15:00:27;24.60;99.90
27741;DHT22;15134;48.768;9.184;2023-07-31T15:02:53;24.60;99.90
27741;DHT22;15134;48.768;9.184;2023-07-31T15:05:21;24.60;99.90
27741;DHT22;15134;48.768;9.184;2023-07-31T15:07:48;24.60;99.90
27741;DHT22;15134;48.768;9.184;2023-07-31T15:10:14;24.60;99.90
27741;DHT22;15134;48.768;9.184;2023-07-31T15:12:40;24.60;99.90
27741;DHT22;15134;48.768;9.184;2023-07-31T15:15:10;24.60;99.90
27741;DHT22;15134;48.768;9.184;2023-07-31T15:17:35;24.60;99.90
27741;DHT22;15134;48.768;9.184;2023-07-31T15:20:01;24.70;99.90
27741;DHT22;15134;48.768;9.184;2023-07-31T15:22:27;24.70;99.90
27741;DHT22;15134;48.768;9.184;2023-07-31T15:24:59;24.70;99.90
27741;DHT22;15134;48.768;9.184;2023-07-31T15:27:24;24.70;99.90
27741;DHT22;15134;48.768;9.184;2023-07-31T15:29:50;24.60;99.90
27741;DHT22;15134;48.768;9.184;2023-07-31T15:32:21;24.60;99.90
27741;DHT22;15134;48.768;9.184;2023-07-31T15:34:47;24.60;99.90
27741;DHT22;15134;48.768;9.184;2023-07-31T15:37:17;24.60;99.90
27741;DHT22;15134;48.768;9.184;2023-07-31T15:39:43;24.50;99.90
27741;DHT22;15134;48.768;9.184;2023-07-31T15:42:09;24.50;99.90
27741;DHT22;15134;48.768;9.184;2023-07-31T15:44:35;24.50;99.90
27741;DHT22;15134;48.768;9.184;2023-07-31T15:47:01;24.40;99.90
27741;DHT22;15134;48.768;9.184;2023-07-31T15:49:29;24.40;99.90
27741;DHT22;15134;48.768;9.184;2023-07-31T15:51:55;24.30;99.90
27741;DHT22;15134;48.768;9.184;2023-07-31T15:54:20;24.20;99.90